Time;durP1;ratioP1;P1;durP2;ratioP2;P2;SDS_P1;SDS_P2;PMS_P1;PMS_P2;Temp;Humidity;BMP_temperature;BMP_pressure;BME280_temperature;BME280_humidity;BME280_pressure;Samples;Min_cycle;Max_cycle;Signal;HPM_P1;HPM_P2
2023/10/28 00:00:37;;;;;;;7.03;2.45;;;11.90;99.90;;;;;;2097398;28;20104;-74
2023/10/28 00:01:40;;;;;;;9.45;2.60;;;11.90;99.90;;;;;;2097341;28;20050;-73
2023/10/28 00:02:40;;;;;;;5.10;2.33;;;11.90;99.90;;;;;;2097988;28;20694;-72
2023/10/28 00:03:41;;;;;;;7.72;2.65;;;11.90;99.90;;;;;;2101029;28;20110;-73
2023/10/28 00:04:41;;;;;;;7.60;2.38;;;11.90;99.90;;;;;;2094516;28;20063;-73
2023/10/28 00:05:42;;;;;;;12.82;3.03;;;11.90;99.90;;;;;;2098637;28;20032;-73
2023/10/28 00:06:43;;;;;;;8.52;2.42;;;11.90;99.90;;;;;;2097009;28;20035;-73
2023/10/28 00:07:43;;;;;;;6.88;2.70;;;11.90;99.90;;;;;;2099284;28;20486;-73
2023/10/28 00:08:44;;;;;;;7.43;2.42;;;11.90;99.90;;;;;;2097851;28;20116;-73
2023/10/28 00:09:44;;;;;;;8.38;2.35;;;11.90;99.90;;;;;;2101409;28;20039;-73
2023/10/28 00:10:47;;;;;;;7.22;2.50;;;11.90;99.90;;;;;;2092243;28;20039;-74
2023/10/28 00:11:48;;;;;;;12.07;2.42;;;11.90;99.90;;;;;;2097095;28;20602;-73
2023/10/28 00:12:50;;;;;;;7.38;2.60;;;11.90;99.90;;;;;;2098224;28;20056;-74
2023/10/28 00:13:50;;;;;;;6.70;2.70;;;11.90;99.90;;;;;;2098546;28;20035;-74
2023/10/28 00:14:51;;;;;;;7.38;2.80;;;11.90;99.90;;;;;;2096997;28;20510;-73
2023/10/28 00:15:51;;;;;;;6.75;2.53;;;11.90;99.90;;;;;;2096314;28;20388;-72
2023/10/28 00:16:52;;;;;;;7.75;2.47;;;11.90;99.90;;;;;;2097186;28;20021;-72
2023/10/28 00:17:52;;;;;;;7.28;2.47;;;11.90;99.90;;;;;;2101539;28;20036;-72
2023/10/28 00:18:53;;;;;;;7.78;2.50;;;11.90;99.90;;;;;;2098403;28;20059;-74
2023/10/28 00:19:54;;;;;;;8.90;2.45;;;11.90;99.90;;;;;;2097058;28;20182;-73
2023/10/28 00:20:55;;;;;;;9.43;2.40;;;12.00;99.90;;;;;;2097134;28;20070;-73
2023/10/28 00:21:55;;;;;;;6.80;2.40;;;12.00;99.90;;;;;;2089526;28;20120;-71
2023/10/28 00:22:57;;;;;;;9.13;2.50;;;12.00;99.90;;;;;;2091009;28;20028;-71
2023/10/28 00:23:58;;;;;;;9.77;2.90;;;12.00;99.90;;;;;;2101896;28;20028;-73
2023/10/28 00:24:58;;;;;;;6.90;2.22;;;12.00;99.90;;;;;;2101877;28;20015;-73
2023/10/28 00:26:06;;;;;;;6.97;3.15;;;12.00;99.90;;;;;;2096463;28;20036;-74
2023/10/28 00:27:06;;;;;;;5.72;2.30;;;12.00;99.90;;;;;;2100350;28;20024;-73
2023/10/28 00:28:07;;;;;;;6.05;2.00;;;12.00;99.90;;;;;;2096933;28;20941;-73
2023/10/28 00:29:07;;;;;;;9.95;2.25;;;12.00;99.90;;;;;;2096372;28;20024;-73
2023/10/28 00:30:09;;;;;;;8.30;2.30;;;12.00;99.90;;;;;;2099302;28;20040;-71
2023/10/28 00:31:17;;;;;;;11.02;2.50;;;12.00;99.90;;;;;;2096691;28;20032;-72
2023/10/28 00:32:22;;;;;;;7.53;2.22;;;12.00;99.90;;;;;;2097709;28;20035;-73
2023/10/28 00:33:23;;;;;;;7.43;2.53;;;12.00;99.90;;;;;;2098137;28;20410;-73
2023/10/28 00:34:23;;;;;;;7.18;2.40;;;12.00;99.90;;;;;;2097254;28;20032;-73
2023/10/28 00:35:25;;;;;;;10.55;2.67;;;12.00;99.90;;;;;;2096544;28;20650;-73
2023/10/28 00:36:25;;;;;;;13.30;2.78;;;12.00;99.90;;;;;;2097801;28;20016;-73
2023/10/28 00:37:26;;;;;;;8.25;2.20;;;12.00;99.90;;;;;;2097603;28;20024;-73
2023/10/28 00:38:28;;;;;;;8.10;2.20;;;12.00;99.90;;;;;;2098739;28;20020;-74
2023/10/28 00:39:29;;;;;;;11.43;2.50;;;12.00;99.90;;;;;;2098439;28;20020;-74
2023/10/28 00:40:30;;;;;;;4.13;1.80;;;12.00;99.90;;;;;;2098962;28;20020;-73
2023/10/28 00:41:32;;;;;;;7.28;2.70;;;12.00;99.90;;;;;;2096896;28;20030;-73
2023/10/28 00:42:37;;;;;;;12.30;3.03;;;12.00;99.90;;;;;;2097224;28;20504;-74
2023/10/28 00:43:37;;;;;;;6.75;2.28;;;12.00;99.90;;;;;;2097400;28;20024;-74
2023/10/28 00:44:38;;;;;;;8.45;2.28;;;12.00;99.90;;;;;;2098055;28;20025;-73
2023/10/28 00:45:40;;;;;;;6.50;2.75;;;12.10;99.90;;;;;;2096290;28;20036;-73
2023/10/28 00:46:40;;;;;;;8.27;2.85;;;12.10;99.90;;;;;;2100237;28;20017;-73
2023/10/28 00:47:46;;;;;;;6.55;2.15;;;12.10;99.90;;;;;;2097381;28;20082;-73
2023/10/28 00:48:48;;;;;;;10.00;2.38;;;12.10;99.90;;;;;;2098872;28;20024;-73
2023/10/28 00:49:50;;;;;;;8.38;2.60;;;12.10;99.90;;;;;;2099492;28;20097;-73
2023/10/28 00:50:51;;;;;;;7.68;2.60;;;12.10;99.90;;;;;;2099717;28;20032;-73
2023/10/28 00:51:52;;;;;;;10.20;2.63;;;12.10;99.90;;;;;;2102509;28;20100;-73
2023/10/28 00:52:54;;;;;;;8.65;3.13;;;12.10;99.90;;;;;;2101875;28;20061;-73
2023/10/28 00:53:55;;;;;;;6.25;2.75;;;12.10;99.90;;;;;;2101635;28;20035;-73
2023/10/28 00:54:56;;;;;;;9.40;2.65;;;12.10;99.90;;;;;;2098181;28;20035;-74
2023/10/28 00:55:59;;;;;;;6.55;2.05;;;12.10;99.90;;;;;;2098876;28;20025;-73
2023/10/28 00:57:00;;;;;;;7.20;2.50;;;12.10;99.90;;;;;;2094600;28;20605;-73
2023/10/28 00:58:01;;;;;;;4.80;2.20;;;12.10;99.90;;;;;;2093967;28;20460;-74
2023/10/28 00:59:02;;;;;;;8.52;2.63;;;12.10;99.90;;;;;;2093931;28;20028;-73
2023/10/28 01:00:03;;;;;;;7.13;2.20;;;12.10;99.90;;;;;;2092711;28;20028;-73
2023/10/28 01:01:04;;;;;;;5.07;2.22;;;12.20;99.90;;;;;;2092284;28;20035;-73
2023/10/28 01:02:04;;;;;;;8.68;2.28;;;12.10;99.90;;;;;;2096831;28;20483;-74
2023/10/28 01:03:05;;;;;;;6.30;2.22;;;12.10;99.90;;;;;;2099190;28;20028;-74
2023/10/28 01:04:05;;;;;;;8.15;3.25;;;12.20;99.90;;;;;;2101124;28;20024;-73
2023/10/28 01:05:11;;;;;;;7.15;2.22;;;12.20;99.90;;;;;;2100029;28;20028;-73
2023/10/28 01:06:12;;;;;;;12.35;2.60;;;12.20;99.90;;;;;;2096407;28;20040;-73
2023/10/28 01:07:13;;;;;;;6.22;2.45;;;12.20;99.90;;;;;;2099658;28;20564;-73
2023/10/28 01:08:13;;;;;;;7.03;2.20;;;12.20;99.90;;;;;;2101695;28;20028;-73
2023/10/28 01:09:14;;;;;;;6.22;2.28;;;12.20;99.90;;;;;;2093853;28;20143;-73
2023/10/28 01:10:29;;;;;;;6.97;2.38;;;12.10;99.90;;;;;;2098941;28;20032;-73
2023/10/28 01:11:30;;;;;;;8.75;2.25;;;12.10;99.90;;;;;;2096726;28;20082;-74
2023/10/28 01:12:31;;;;;;;8.55;2.55;;;12.20;99.90;;;;;;2097436;28;20024;-73
2023/10/28 01:13:32;;;;;;;8.85;2.78;;;12.20;99.90;;;;;;2097595;28;20024;-74
2023/10/28 01:14:32;;;;;;;9.30;3.10;;;12.20;99.90;;;;;;2097117;28;20025;-74
2023/10/28 01:15:33;;;;;;;5.95;2.30;;;12.20;99.90;;;;;;2100888;28;20115;-73
2023/10/28 01:16:34;;;;;;;4.82;2.00;;;12.20;99.90;;;;;;2101949;28;20103;-73
2023/10/28 01:17:35;;;;;;;7.03;2.10;;;12.20;99.90;;;;;;2100769;28;20107;-73
2023/10/28 01:18:35;;;;;;;6.32;2.35;;;12.20;99.90;;;;;;2102530;28;20479;-74
2023/10/28 01:19:36;;;;;;;7.50;2.25;;;12.20;99.90;;;;;;2098884;28;20412;-73
2023/10/28 01:20:36;;;;;;;10.07;2.45;;;12.20;99.90;;;;;;2098556;28;20047;-73
2023/10/28 01:21:40;;;;;;;8.93;2.30;;;12.20;99.90;;;;;;2098135;28;20044;-73
2023/10/28 01:22:40;;;;;;;7.50;2.33;;;12.30;99.90;;;;;;2098241;28;20024;-73
2023/10/28 01:23:41;;;;;;;4.03;2.10;;;12.30;99.90;;;;;;2096690;28;20028;-73
2023/10/28 01:24:42;;;;;;;5.57;2.50;;;12.30;99.90;;;;;;2099037;28;20115;-73
2023/10/28 01:25:42;;;;;;;5.07;2.30;;;12.30;99.90;;;;;;2100601;28;20047;-73
2023/10/28 01:26:43;;;;;;;7.30;2.35;;;12.30;99.90;;;;;;2102138;28;20040;-74
2023/10/28 01:27:44;;;;;;;6.85;2.40;;;12.30;99.90;;;;;;2098387;28;20519;-73
2023/10/28 01:28:45;;;;;;;6.55;2.05;;;12.20;99.90;;;;;;2105776;28;20097;-73
2023/10/28 01:29:46;;;;;;;4.70;2.00;;;12.30;99.90;;;;;;2104753;28;20020;-74
2023/10/28 01:30:48;;;;;;;7.07;2.22;;;12.30;99.90;;;;;;2104082;28;20035;-73
2023/10/28 01:31:48;;;;;;;8.65;2.25;;;12.30;99.90;;;;;;2099455;28;20069;-73
2023/10/28 01:32:49;;;;;;;7.53;2.30;;;12.30;99.90;;;;;;2098827;28;20105;-73
2023/10/28 01:33:49;;;;;;;7.40;2.47;;;12.30;99.90;;;;;;2097450;28;20421;-73
2023/10/28 01:34:55;;;;;;;5.15;1.98;;;12.30;99.90;;;;;;2096724;28;20100;-73
2023/10/28 01:35:55;;;;;;;9.98;2.63;;;12.30;99.90;;;;;;2098333;28;20029;-74
2023/10/28 01:36:57;;;;;;;7.07;2.65;;;12.30;99.90;;;;;;2097673;28;20023;-73
2023/10/28 01:37:58;;;;;;;6.60;2.63;;;12.30;99.90;;;;;;2097654;28;20574;-73
2023/10/28 01:38:58;;;;;;;13.40;2.63;;;12.30;99.90;;;;;;2097261;28;20016;-73
2023/10/28 01:39:59;;;;;;;8.10;2.50;;;12.30;99.90;;;;;;2096940;28;20437;-73
2023/10/28 01:41:00;;;;;;;11.10;2.80;;;12.30;99.90;;;;;;2096792;28;20056;-73
2023/10/28 01:42:01;;;;;;;4.45;2.33;;;12.30;99.90;;;;;;2096316;28;20036;-74
2023/10/28 01:43:01;;;;;;;7.90;2.25;;;12.30;99.90;;;;;;2098988;28;20039;-74
2023/10/28 01:44:02;;;;;;;10.75;2.40;;;12.30;99.90;;;;;;2090933;28;20455;-74
2023/10/28 01:45:03;;;;;;;6.10;2.15;;;12.30;99.90;;;;;;2098718;28;20074;-73
2023/10/28 01:46:04;;;;;;;10.50;2.40;;;12.30;99.90;;;;;;2098329;28;20505;-73
2023/10/28 01:47:05;;;;;;;8.50;2.58;;;12.30;99.90;;;;;;2102372;28;20093;-73
2023/10/28 01:48:05;;;;;;;7.90;2.42;;;12.30;99.90;;;;;;2092494;28;20056;-74
2023/10/28 01:49:06;;;;;;;12.18;3.30;;;12.30;99.90;;;;;;2100163;28;20036;-73
2023/10/28 01:50:06;;;;;;;13.70;2.58;;;12.40;99.90;;;;;;2095573;28;20039;-73
2023/10/28 01:51:08;;;;;;;7.18;1.92;;;12.30;99.90;;;;;;2099829;28;20031;-73
2023/10/28 01:52:11;;;;;;;9.02;2.55;;;12.30;99.90;;;;;;2100040;28;20538;-73
2023/10/28 01:53:11;;;;;;;8.60;2.45;;;12.40;99.90;;;;;;2100804;28;20101;-73
2023/10/28 01:54:12;;;;;;;6.97;2.70;;;12.40;99.90;;;;;;2097349;28;20020;-73
2023/10/28 01:55:12;;;;;;;6.90;2.35;;;12.40;99.90;;;;;;2097940;28;20043;-73
2023/10/28 01:56:13;;;;;;;5.47;1.60;;;12.40;99.90;;;;;;2094197;28;20036;-74
2023/10/28 01:57:13;;;;;;;9.75;2.72;;;12.40;99.90;;;;;;2100502;28;20592;-74
2023/10/28 01:58:14;;;;;;;6.65;2.58;;;12.40;99.90;;;;;;2102282;28;20028;-74
2023/10/28 01:59:15;;;;;;;6.85;2.03;;;12.40;99.90;;;;;;2098694;28;20017;-74
2023/10/28 02:00:16;;;;;;;5.95;2.15;;;12.40;99.90;;;;;;2100908;28;20051;-73
2023/10/28 02:01:17;;;;;;;5.78;2.50;;;12.40;99.90;;;;;;2101511;28;20682;-74
2023/10/28 02:02:18;;;;;;;8.57;2.00;;;12.40;99.90;;;;;;2096929;28;20476;-74
2023/10/28 02:03:18;;;;;;;7.82;1.92;;;12.40;99.90;;;;;;2097110;28;20055;-73
2023/10/28 02:04:19;;;;;;;6.97;2.10;;;12.40;99.90;;;;;;2098799;28;20513;-73
2023/10/28 02:05:19;;;;;;;6.07;2.00;;;12.40;99.90;;;;;;2098380;28;20035;-73
2023/10/28 02:06:20;;;;;;;4.38;2.00;;;12.40;99.90;;;;;;2098811;28;20032;-73
2023/10/28 02:07:21;;;;;;;4.72;1.80;;;12.40;99.90;;;;;;2096492;28;20099;-74
2023/10/28 02:08:21;;;;;;;10.30;3.28;;;12.40;99.90;;;;;;2097278;28;20021;-73
2023/10/28 02:09:22;;;;;;;6.68;2.10;;;12.40;99.90;;;;;;2100897;28;20069;-73
2023/10/28 02:10:24;;;;;;;7.70;2.45;;;12.40;99.90;;;;;;2100368;28;20485;-73
2023/10/28 02:11:24;;;;;;;7.32;2.33;;;12.50;99.90;;;;;;2100164;28;20043;-73
2023/10/28 02:12:25;;;;;;;6.93;2.35;;;12.50;99.90;;;;;;2098169;28;20023;-74
2023/10/28 02:13:26;;;;;;;7.97;2.17;;;12.50;99.90;;;;;;2096480;28;20036;-73
2023/10/28 02:14:26;;;;;;;5.22;2.05;;;12.50;99.90;;;;;;2098659;28;20110;-73
2023/10/28 02:15:27;;;;;;;6.20;1.77;;;12.50;99.90;;;;;;2096305;28;20267;-73
2023/10/28 02:16:27;;;;;;;6.07;2.30;;;12.50;99.90;;;;;;2095655;28;20028;-74
2023/10/28 02:17:28;;;;;;;6.72;2.17;;;12.50;99.90;;;;;;2098206;28;20086;-73
2023/10/28 02:18:29;;;;;;;8.00;2.20;;;12.50;99.90;;;;;;2097028;28;20028;-73
2023/10/28 02:19:31;;;;;;;5.38;1.98;;;12.50;99.90;;;;;;2097200;28;20479;-74
2023/10/28 02:20:33;;;;;;;4.30;1.85;;;12.50;99.90;;;;;;2097967;28;20031;-74
2023/10/28 02:21:33;;;;;;;10.45;2.10;;;12.50;99.90;;;;;;2099530;28;20617;-74
2023/10/28 02:22:34;;;;;;;7.03;2.10;;;12.50;99.90;;;;;;2100695;28;20526;-74
2023/10/28 02:23:34;;;;;;;9.88;2.08;;;12.50;99.90;;;;;;2097366;28;20060;-73
2023/10/28 02:24:35;;;;;;;11.73;2.22;;;12.60;99.90;;;;;;2097189;28;20111;-73
2023/10/28 02:25:35;;;;;;;6.57;2.10;;;12.60;99.90;;;;;;2095680;28;20573;-74
2023/10/28 02:26:36;;;;;;;5.40;1.70;;;12.50;99.90;;;;;;2097317;28;20426;-74
2023/10/28 02:27:37;;;;;;;6.82;1.70;;;12.50;99.90;;;;;;2098579;28;20044;-73
2023/10/28 02:28:37;;;;;;;6.65;1.92;;;12.60;99.90;;;;;;2098336;28;20024;-74
2023/10/28 02:29:38;;;;;;;8.95;1.98;;;12.50;99.90;;;;;;2097499;28;20091;-73
2023/10/28 02:30:40;;;;;;;4.90;1.65;;;12.60;99.90;;;;;;2096843;28;20535;-73
2023/10/28 02:31:40;;;;;;;6.22;1.83;;;12.60;99.90;;;;;;2096352;28;20428;-73
2023/10/28 02:32:41;;;;;;;3.83;1.40;;;12.60;99.90;;;;;;2100541;28;20748;-73
2023/10/28 02:33:42;;;;;;;6.32;2.10;;;12.50;99.90;;;;;;2103072;28;20024;-74
2023/10/28 02:34:42;;;;;;;3.22;1.52;;;12.60;99.90;;;;;;2100006;28;20078;-73
2023/10/28 02:35:43;;;;;;;7.05;2.03;;;12.50;99.90;;;;;;2099946;28;20555;-73
2023/10/28 02:36:43;;;;;;;3.33;1.35;;;12.50;99.90;;;;;;2100146;28;20021;-73
2023/10/28 02:37:44;;;;;;;6.60;2.20;;;12.50;99.90;;;;;;2098656;28;20638;-73
2023/10/28 02:38:44;;;;;;;4.47;1.50;;;12.60;99.90;;;;;;2097513;28;20036;-73
2023/10/28 02:39:45;;;;;;;4.07;1.60;;;12.50;99.90;;;;;;2099012;28;20111;-73
2023/10/28 02:40:48;;;;;;;5.78;1.63;;;12.50;99.90;;;;;;2097610;28;20032;-73
2023/10/28 02:41:49;;;;;;;6.97;1.55;;;12.60;99.90;;;;;;2097995;28;20044;-73
2023/10/28 02:42:49;;;;;;;3.05;1.50;;;12.50;99.90;;;;;;2097321;28;20029;-73
2023/10/28 02:43:50;;;;;;;6.68;1.77;;;12.60;99.90;;;;;;2099587;28;20024;-73
2023/10/28 02:44:50;;;;;;;4.75;1.75;;;12.60;99.90;;;;;;2100080;28;20480;-74
2023/10/28 02:45:51;;;;;;;5.38;1.52;;;12.60;99.90;;;;;;2098756;28;20375;-74
2023/10/28 02:46:53;;;;;;;4.45;1.73;;;12.60;99.90;;;;;;2098680;28;20028;-73
2023/10/28 02:47:53;;;;;;;4.85;1.75;;;12.60;99.90;;;;;;2097236;28;20221;-73
2023/10/28 02:48:54;;;;;;;3.67;1.48;;;12.60;99.90;;;;;;2093337;28;20058;-73
2023/10/28 02:49:55;;;;;;;4.95;1.27;;;12.60;99.90;;;;;;2103068;28;20016;-73
2023/10/28 02:51:00;;;;;;;5.97;1.88;;;12.60;99.90;;;;;;2101606;28;20600;-74
2023/10/28 02:52:01;;;;;;;3.17;1.52;;;12.60;99.90;;;;;;2098910;28;20032;-74
2023/10/28 02:53:01;;;;;;;2.85;1.05;;;12.60;99.90;;;;;;2100566;28;20036;-74
2023/10/28 02:54:02;;;;;;;4.43;1.63;;;12.60;99.90;;;;;;2101036;28;20028;-73
2023/10/28 02:55:05;;;;;;;5.20;1.42;;;12.60;99.90;;;;;;2108068;28;20105;-74
2023/10/28 02:56:06;;;;;;;3.97;1.20;;;12.60;99.90;;;;;;2097858;28;20025;-74
2023/10/28 02:57:08;;;;;;;3.17;1.20;;;12.60;99.90;;;;;;2097698;28;20024;-74
2023/10/28 02:58:08;;;;;;;5.15;1.38;;;12.60;99.90;;;;;;2090765;28;20021;-73
2023/10/28 02:59:10;;;;;;;3.17;1.05;;;12.60;99.90;;;;;;2091591;28;20025;-73
2023/10/28 03:00:11;;;;;;;2.10;1.20;;;12.60;99.90;;;;;;2090606;28;20021;-73
2023/10/28 03:01:13;;;;;;;4.95;1.48;;;12.60;99.90;;;;;;2093455;28;20055;-73
2023/10/28 03:02:14;;;;;;;3.13;1.27;;;12.60;99.90;;;;;;2099362;28;20028;-73
2023/10/28 03:03:14;;;;;;;2.75;1.10;;;12.60;99.90;;;;;;2100550;28;20028;-73
2023/10/28 03:04:16;;;;;;;2.83;1.05;;;12.60;99.90;;;;;;2094494;28;20013;-73
2023/10/28 03:05:18;;;;;;;1.80;0.93;;;12.60;99.90;;;;;;2103742;28;20027;-73
2023/10/28 03:06:18;;;;;;;3.10;1.40;;;12.60;99.90;;;;;;2098443;28;20127;-73
2023/10/28 03:07:19;;;;;;;3.85;1.20;;;12.60;99.90;;;;;;2101217;28;20094;-73
2023/10/28 03:08:20;;;;;;;2.58;1.38;;;12.60;99.90;;;;;;2099105;28;20056;-73
2023/10/28 03:09:20;;;;;;;2.05;0.90;;;12.60;99.90;;;;;;2099553;28;20031;-73
2023/10/28 03:10:21;;;;;;;2.67;1.20;;;12.70;99.90;;;;;;2098370;28;20032;-73
2023/10/28 03:11:21;;;;;;;4.13;1.40;;;12.70;99.90;;;;;;2097914;28;20042;-73
2023/10/28 03:12:22;;;;;;;3.78;1.30;;;12.70;99.90;;;;;;2101060;28;20027;-73
2023/10/28 03:13:23;;;;;;;3.03;1.20;;;12.60;99.90;;;;;;2102553;28;21510;-74
2023/10/28 03:14:24;;;;;;;5.75;1.60;;;12.60;99.90;;;;;;2097581;28;20515;-74
2023/10/28 03:15:24;;;;;;;4.75;1.20;;;12.60;99.90;;;;;;2098262;28;20099;-73
2023/10/28 03:16:25;;;;;;;3.40;1.20;;;12.60;99.90;;;;;;2097839;28;20021;-73
2023/10/28 03:17:26;;;;;;;2.95;1.05;;;12.60;99.90;;;;;;2099834;28;20021;-73
2023/10/28 03:18:26;;;;;;;3.55;1.45;;;12.60;99.90;;;;;;2101931;28;20028;-73
2023/10/28 03:19:27;;;;;;;3.83;1.58;;;12.70;99.90;;;;;;2104380;28;20028;-73
2023/10/28 03:20:27;;;;;;;4.45;1.33;;;12.60;99.90;;;;;;2099219;28;20020;-74
2023/10/28 03:21:28;;;;;;;3.63;1.30;;;12.60;99.90;;;;;;2097474;28;20086;-74
2023/10/28 03:22:29;;;;;;;3.60;1.48;;;12.60;99.90;;;;;;2098508;28;20048;-73
2023/10/28 03:23:29;;;;;;;3.38;1.35;;;12.60;99.90;;;;;;2098070;28;20063;-73
2023/10/28 03:24:30;;;;;;;2.55;1.10;;;12.70;99.90;;;;;;2103355;28;20032;-73
2023/10/28 03:25:31;;;;;;;4.90;1.40;;;12.70;99.90;;;;;;2101064;28;20498;-73
2023/10/28 03:26:35;;;;;;;4.05;1.50;;;12.70;99.90;;;;;;2101209;28;20479;-73
2023/10/28 03:27:35;;;;;;;4.95;1.20;;;12.70;99.90;;;;;;2103412;28;20046;-73
2023/10/28 03:28:36;;;;;;;4.90;1.95;;;12.70;99.90;;;;;;2100855;28;20035;-73
2023/10/28 03:29:39;;;;;;;5.95;1.30;;;12.70;99.90;;;;;;2093572;28;20514;-73
2023/10/28 03:30:40;;;;;;;4.55;1.30;;;12.70;99.90;;;;;;2102321;28;20387;-74
2023/10/28 03:31:40;;;;;;;3.22;1.48;;;12.70;99.90;;;;;;2099265;28;20059;-73
2023/10/28 03:32:41;;;;;;;3.65;1.50;;;12.70;99.90;;;;;;2098902;28;20052;-73
2023/10/28 03:33:41;;;;;;;6.22;1.60;;;12.70;99.90;;;;;;2098234;28;20032;-73
2023/10/28 03:34:42;;;;;;;3.45;1.33;;;12.70;99.90;;;;;;2097287;28;20066;-73
2023/10/28 03:35:43;;;;;;;3.78;1.80;;;12.70;99.90;;;;;;2099315;28;20471;-73
2023/10/28 03:36:43;;;;;;;4.43;1.40;;;12.70;99.90;;;;;;2096401;28;20190;-74
2023/10/28 03:37:44;;;;;;;5.15;1.63;;;12.70;99.90;;;;;;2091912;28;20021;-73
2023/10/28 03:38:44;;;;;;;3.80;1.42;;;12.70;99.90;;;;;;2102269;28;20036;-73
2023/10/28 03:39:45;;;;;;;5.93;1.63;;;12.70;99.90;;;;;;2098075;28;20546;-73
2023/10/28 03:40:46;;;;;;;4.65;1.55;;;12.70;99.90;;;;;;2097973;28;20056;-73
2023/10/28 03:41:46;;;;;;;3.92;1.60;;;12.70;99.90;;;;;;2096666;28;20418;-73
2023/10/28 03:42:47;;;;;;;3.42;1.52;;;12.70;99.90;;;;;;2100155;28;20025;-74
2023/10/28 03:43:47;;;;;;;4.57;1.88;;;12.70;99.90;;;;;;2099124;28;20060;-73
2023/10/28 03:44:48;;;;;;;4.05;1.70;;;12.60;99.90;;;;;;2097058;28;20517;-74
2023/10/28 03:45:48;;;;;;;2.72;1.48;;;12.70;99.90;;;;;;2097703;28;20032;-74
2023/10/28 03:46:49;;;;;;;8.63;1.88;;;12.60;99.90;;;;;;2098557;28;20025;-73
2023/10/28 03:47:50;;;;;;;2.55;1.25;;;12.60;99.90;;;;;;2099548;28;20028;-74
2023/10/28 03:48:51;;;;;;;2.90;1.55;;;12.60;99.90;;;;;;2097451;28;20028;-73
2023/10/28 03:49:51;;;;;;;3.47;1.63;;;12.60;99.90;;;;;;2097941;28;20025;-74
2023/10/28 03:51:05;;;;;;;4.47;1.70;;;12.60;99.90;;;;;;2098290;28;20079;-72
2023/10/28 03:52:06;;;;;;;2.70;1.60;;;12.60;99.90;;;;;;2101034;28;20039;-72
2023/10/28 03:53:07;;;;;;;5.07;1.98;;;12.60;99.90;;;;;;2102593;28;20499;-72
2023/10/28 03:54:08;;;;;;;4.13;1.73;;;12.60;99.90;;;;;;2098142;28;20356;-73
2023/10/28 03:55:08;;;;;;;4.68;1.75;;;12.60;99.90;;;;;;2098472;28;20024;-72
2023/10/28 03:56:10;;;;;;;3.65;1.60;;;12.60;99.90;;;;;;2099799;28;20077;-72
2023/10/28 03:57:10;;;;;;;5.85;1.92;;;12.60;99.90;;;;;;2100304;28;20024;-72
2023/10/28 03:58:11;;;;;;;6.22;2.20;;;12.60;99.90;;;;;;2099190;28;20740;-72
2023/10/28 03:59:13;;;;;;;5.10;2.17;;;12.60;99.90;;;;;;2099988;28;20394;-72
2023/10/28 04:00:14;;;;;;;6.10;1.73;;;12.60;99.90;;;;;;2097457;28;20016;-72
2023/10/28 04:01:15;;;;;;;4.22;1.90;;;12.60;99.90;;;;;;2099038;28;20025;-72
2023/10/28 04:02:19;;;;;;;6.32;2.28;;;12.60;99.90;;;;;;2100766;28;20016;-72
2023/10/28 04:03:23;;;;;;;4.75;2.22;;;12.60;99.90;;;;;;2092214;28;20120;-72
2023/10/28 04:04:24;;;;;;;5.53;2.28;;;12.60;99.90;;;;;;2094204;28;20484;-72
2023/10/28 04:05:24;;;;;;;5.32;2.10;;;12.60;99.90;;;;;;2090310;28;20400;-72
2023/10/28 04:06:25;;;;;;;4.18;2.15;;;12.60;99.90;;;;;;2097377;28;20032;-72
2023/10/28 04:07:25;;;;;;;7.95;2.08;;;12.60;99.90;;;;;;2098197;28;20032;-72
2023/10/28 04:08:26;;;;;;;5.22;2.28;;;12.60;99.90;;;;;;2096947;28;20103;-71
2023/10/28 04:09:26;;;;;;;4.82;2.15;;;12.60;99.90;;;;;;2101050;28;20020;-72
2023/10/28 04:10:28;;;;;;;6.80;2.20;;;12.60;99.90;;;;;;2099734;28;20090;-71
2023/10/28 04:11:28;;;;;;;6.57;2.75;;;12.60;99.90;;;;;;2099103;28;22761;-72
2023/10/28 04:12:30;;;;;;;4.70;2.28;;;12.60;99.90;;;;;;2102121;28;20134;-72
2023/10/28 04:13:30;;;;;;;4.47;1.90;;;12.60;99.90;;;;;;2095095;28;20518;-72
2023/10/28 04:14:34;;;;;;;2.83;1.90;;;12.60;99.90;;;;;;2102481;28;20453;-72
2023/10/28 04:15:37;;;;;;;3.30;2.10;;;12.60;99.90;;;;;;2098043;28;20620;-72
2023/10/28 04:16:38;;;;;;;5.93;2.47;;;12.60;99.90;;;;;;2100249;28;20035;-72
2023/10/28 04:17:39;;;;;;;3.85;1.70;;;12.60;99.90;;;;;;2098466;28;20043;-72
2023/10/28 04:18:40;;;;;;;4.35;2.20;;;12.60;99.90;;;;;;2097110;28;20028;-72
2023/10/28 04:19:40;;;;;;;7.57;2.25;;;12.60;99.90;;;;;;2098736;28;20033;-71
2023/10/28 04:20:41;;;;;;;4.45;2.17;;;12.50;99.90;;;;;;2097993;28;20399;-72
2023/10/28 04:21:41;;;;;;;2.97;2.22;;;12.50;99.90;;;;;;2097211;28;20024;-72
2023/10/28 04:22:43;;;;;;;3.40;1.80;;;12.50;99.90;;;;;;2097847;28;20029;-72
2023/10/28 04:23:44;;;;;;;3.92;2.03;;;12.50;99.90;;;;;;2099633;28;20028;-71
2023/10/28 04:24:45;;;;;;;8.23;2.30;;;12.50;99.90;;;;;;2100170;28;20043;-72
2023/10/28 04:25:45;;;;;;;5.03;2.10;;;12.50;99.90;;;;;;2099376;28;20016;-72
2023/10/28 04:26:46;;;;;;;3.00;2.08;;;12.50;99.90;;;;;;2096840;28;20025;-72
2023/10/28 04:27:46;;;;;;;3.22;1.88;;;12.50;99.90;;;;;;2097583;28;20024;-71
2023/10/28 04:28:47;;;;;;;5.53;2.05;;;12.50;99.90;;;;;;2098224;28;20027;-72
2023/10/28 04:29:47;;;;;;;7.10;2.22;;;12.50;99.90;;;;;;2098247;28;20103;-71
2023/10/28 04:30:56;;;;;;;6.25;2.55;;;12.50;99.90;;;;;;2099497;28;20476;-72
2023/10/28 04:31:56;;;;;;;5.03;1.95;;;12.50;99.90;;;;;;2098203;28;20535;-72
2023/10/28 04:32:57;;;;;;;2.10;1.58;;;12.50;99.90;;;;;;2097872;28;20468;-72
2023/10/28 04:33:57;;;;;;;5.47;2.17;;;12.50;99.90;;;;;;2100234;28;20024;-72
2023/10/28 04:34:58;;;;;;;4.10;1.80;;;12.50;99.90;;;;;;2097459;28;20108;-72
2023/10/28 04:35:59;;;;;;;3.72;1.80;;;12.50;99.90;;;;;;2105773;28;20077;-72
2023/10/28 04:36:59;;;;;;;5.30;2.00;;;12.60;99.90;;;;;;2106127;28;20427;-72
2023/10/28 04:38:00;;;;;;;7.05;2.05;;;12.60;99.90;;;;;;2098804;28;20028;-72
2023/10/28 04:39:01;;;;;;;5.60;2.20;;;12.50;99.90;;;;;;2099882;28;20024;-72
2023/10/28 04:40:05;;;;;;;5.72;2.28;;;12.50;99.90;;;;;;2098470;28;20095;-72
2023/10/28 04:41:08;;;;;;;3.92;1.80;;;12.50;99.90;;;;;;2098077;28;20024;-72
2023/10/28 04:42:08;;;;;;;7.82;2.03;;;12.50;99.90;;;;;;2097010;28;20020;-72
2023/10/28 04:43:09;;;;;;;6.75;2.08;;;12.50;99.90;;;;;;2097811;28;20024;-72
2023/10/28 04:44:13;;;;;;;3.20;1.70;;;12.50;99.90;;;;;;2097812;28;20052;-72
2023/10/28 04:45:13;;;;;;;3.35;1.83;;;12.50;99.90;;;;;;2098824;28;20980;-72
2023/10/28 04:46:14;;;;;;;3.55;1.80;;;12.50;99.90;;;;;;2099051;28;20490;-72
2023/10/28 04:47:15;;;;;;;4.68;2.10;;;12.50;99.90;;;;;;2098258;28;20020;-72
2023/10/28 04:48:16;;;;;;;5.00;2.20;;;12.50;99.90;;;;;;2098258;28;20031;-72
2023/10/28 04:49:16;;;;;;;4.75;2.20;;;12.50;99.90;;;;;;2097891;28;20039;-71
2023/10/28 04:50:17;;;;;;;2.95;1.83;;;12.50;99.90;;;;;;2097758;28;20024;-72
2023/10/28 04:51:17;;;;;;;5.22;2.08;;;12.50;99.90;;;;;;2096643;28;20066;-71
2023/10/28 04:52:20;;;;;;;5.15;2.08;;;12.50;99.90;;;;;;2097494;28;20849;-72
2023/10/28 04:53:22;;;;;;;4.80;2.05;;;12.50;99.90;;;;;;2098333;28;20657;-72
2023/10/28 04:54:23;;;;;;;3.30;1.65;;;12.50;99.90;;;;;;2098583;28;20319;-71
2023/10/28 04:55:25;;;;;;;4.55;1.92;;;12.50;99.90;;;;;;2098512;28;20430;-72
2023/10/28 04:56:26;;;;;;;4.45;1.90;;;12.50;99.90;;;;;;2091674;28;20017;-72
2023/10/28 04:57:26;;;;;;;4.22;2.25;;;12.50;99.90;;;;;;2097031;28;20108;-72
2023/10/28 04:58:28;;;;;;;4.78;2.40;;;12.50;99.90;;;;;;2096806;28;20031;-72
2023/10/28 04:59:29;;;;;;;6.72;2.08;;;12.50;99.90;;;;;;2099658;28;20471;-72
2023/10/28 05:00:30;;;;;;;2.75;2.00;;;12.50;99.90;;;;;;2099730;28;20031;-72
2023/10/28 05:01:30;;;;;;;5.75;2.00;;;12.50;99.90;;;;;;2101577;28;20522;-72
2023/10/28 05:02:33;;;;;;;3.13;1.90;;;12.50;99.90;;;;;;2101350;28;20454;-72
2023/10/28 05:03:34;;;;;;;6.15;1.75;;;12.50;99.90;;;;;;2097453;28;20826;-72
2023/10/28 05:04:35;;;;;;;4.95;1.90;;;12.50;99.90;;;;;;2096864;28;20464;-72
2023/10/28 05:05:37;;;;;;;2.72;1.75;;;12.50;99.90;;;;;;2097923;28;20207;-72
2023/10/28 05:06:37;;;;;;;3.28;1.70;;;12.50;99.90;;;;;;2097303;28;20082;-71
2023/10/28 05:07:38;;;;;;;5.30;2.50;;;12.60;99.90;;;;;;2098452;28;20031;-72
2023/10/28 05:08:39;;;;;;;3.58;1.80;;;12.50;99.90;;;;;;2098856;28;20040;-72
2023/10/28 05:09:39;;;;;;;4.72;1.70;;;12.50;99.90;;;;;;2096820;28;20115;-72
2023/10/28 05:10:41;;;;;;;1.92;1.40;;;12.50;99.90;;;;;;2097087;28;20557;-72
2023/10/28 05:11:42;;;;;;;9.25;2.20;;;12.50;99.90;;;;;;2099244;28;20131;-71
2023/10/28 05:12:43;;;;;;;4.70;2.10;;;12.50;99.90;;;;;;2102162;28;20032;-72
2023/10/28 05:13:43;;;;;;;2.75;1.80;;;12.50;99.90;;;;;;2101783;28;20024;-72
2023/10/28 05:14:47;;;;;;;4.25;2.00;;;12.50;99.90;;;;;;2098412;28;20035;-72
2023/10/28 05:15:48;;;;;;;2.80;1.65;;;12.50;99.90;;;;;;2096797;28;20059;-72
2023/10/28 05:16:53;;;;;;;5.38;2.08;;;12.50;99.90;;;;;;2098511;28;20439;-72
2023/10/28 05:17:53;;;;;;;4.57;1.75;;;12.50;99.90;;;;;;2098463;28;20031;-72